sensor_id;sensor_type;location;lat;lon;timestamp;pressure;altitude;pressure_sealevel;temperature;humidity
1832;BME280;1680;48.106;11.708;2023-09-19T00:00:31;95247.38;;;16.38;100.00
1832;BME280;1680;48.106;11.708;2023-09-19T00:02:59;95244.19;;;16.36;100.00
1832;BME280;1680;48.106;11.708;2023-09-19T00:05:26;95243.13;;;16.32;100.00
1832;BME280;1680;48.106;11.708;2023-09-19T00:07:56;95241.53;;;16.31;100.00
1832;BME280;1680;48.106;11.708;2023-09-19T00:10:24;95234.38;;;16.37;100.00
1832;BME280;1680;48.106;11.708;2023-09-19T00:12:52;95229.31;;;16.30;100.00
1832;BME280;1680;48.106;11.708;2023-09-19T00:15:21;95233.06;;;16.34;100.00
1832;BME280;1680;48.106;11.708;2023-09-19T00:17:49;95236.50;;;16.40;100.00
1832;BME280;1680;48.106;11.708;2023-09-19T00:20:18;95230.94;;;16.41;100.00
1832;BME280;1680;48.106;11.708;2023-09-19T00:22:48;95237.03;;;16.42;100.00
1832;BME280;1680;48.106;11.708;2023-09-19T00:25:16;95242.88;;;16.44;100.00
1832;BME280;1680;48.106;11.708;2023-09-19T00:27:43;95243.66;;;16.39;100.00
1832;BME280;1680;48.106;11.708;2023-09-19T00:30:13;95231.47;;;16.33;100.00
1832;BME280;1680;48.106;11.708;2023-09-19T00:32:45;95242.31;;;16.37;100.00
1832;BME280;1680;48.106;11.708;2023-09-19T00:35:14;95230.16;;;16.31;100.00
1832;BME280;1680;48.106;11.708;2023-09-19T00:37:42;95253.72;;;16.42;100.00
1832;BME280;1680;48.106;11.708;2023-09-19T00:40:10;95253.19;;;16.40;100.00
1832;BME280;1680;48.106;11.708;2023-09-19T00:42:38;95257.41;;;16.41;100.00
1832;BME280;1680;48.106;11.708;2023-09-19T00:45:07;95248.16;;;16.39;100.00
1832;BME280;1680;48.106;11.708;2023-09-19T00:47:36;95247.34;;;16.43;100.00
1832;BME280;1680;48.106;11.708;2023-09-19T00:50:05;95257.94;;;16.48;100.00
1832;BME280;1680;48.106;11.708;2023-09-19T00:52:34;95248.94;;;16.44;100.00
1832;BME280;1680;48.106;11.708;2023-09-19T00:55:05;95256.34;;;16.42;100.00
1832;BME280;1680;48.106;11.708;2023-09-19T00:57:32;95258.22;;;16.42;100.00
1832;BME280;1680;48.106;11.708;2023-09-19T01:00:00;95252.13;;;16.41;100.00
1832;BME280;1680;48.106;11.708;2023-09-19T01:02:31;95229.34;;;16.20;100.00
1832;BME280;1680;48.106;11.708;2023-09-19T01:04:58;95262.13;;;16.29;100.00
1832;BME280;1680;48.106;11.708;2023-09-19T01:07:26;95264.25;;;16.27;100.00
1832;BME280;1680;48.106;11.708;2023-09-19T01:09:56;95261.09;;;16.25;100.00
1832;BME280;1680;48.106;11.708;2023-09-19T01:12:30;95271.66;;;16.30;100.00
1832;BME280;1680;48.106;11.708;2023-09-19T01:15:06;95269.59;;;16.32;100.00
1832;BME280;1680;48.106;11.708;2023-09-19T01:17:43;95274.88;;;16.32;100.00
1832;BME280;1680;48.106;11.708;2023-09-19T01:20:21;95280.66;;;16.29;100.00
1832;BME280;1680;48.106;11.708;2023-09-19T01:23:00;95273.81;;;16.33;100.00
1832;BME280;1680;48.106;11.708;2023-09-19T01:26:07;95278.03;;;16.29;100.00
1832;BME280;1680;48.106;11.708;2023-09-19T01:28:53;95283.31;;;16.29;100.00
1832;BME280;1680;48.106;11.708;2023-09-19T01:31:28;95283.31;;;16.24;100.00
1832;BME280;1680;48.106;11.708;2023-09-19T01:34:00;95286.22;;;16.23;100.00
1832;BME280;1680;48.106;11.708;2023-09-19T01:36:31;95289.91;;;16.22;100.00
1832;BME280;1680;48.106;11.708;2023-09-19T01:39:01;95293.91;;;16.24;100.00
1832;BME280;1680;48.106;11.708;2023-09-19T01:41:41;95300.78;;;16.25;100.00
1832;BME280;1680;48.106;11.708;2023-09-19T01:44:17;95297.88;;;16.27;100.00
1832;BME280;1680;48.106;11.708;2023-09-19T01:46:47;95315.88;;;16.25;100.00
1832;BME280;1680;48.106;11.708;2023-09-19T01:49:22;95302.91;;;16.28;100.00
1832;BME280;1680;48.106;11.708;2023-09-19T01:52:02;95308.19;;;16.23;100.00
1832;BME280;1680;48.106;11.708;2023-09-19T01:54:34;95310.56;;;16.25;100.00
1832;BME280;1680;48.106;11.708;2023-09-19T01:57:08;95309.81;;;16.34;100.00
1832;BME280;1680;48.106;11.708;2023-09-19T01:59:43;95304.22;;;16.26;100.00
1832;BME280;1680;48.106;11.708;2023-09-19T02:02:15;95312.44;;;16.29;100.00
1832;BME280;1680;48.106;11.708;2023-09-19T02:04:44;95310.34;;;16.31;100.00
1832;BME280;1680;48.106;11.708;2023-09-19T02:07:11;95307.44;;;16.33;100.00
1832;BME280;1680;48.106;11.708;2023-09-19T02:09:42;95310.59;;;16.35;100.00
1832;BME280;1680;48.106;11.708;2023-09-19T02:12:09;95312.19;;;16.36;100.00
1832;BME280;1680;48.106;11.708;2023-09-19T02:14:36;95313.25;;;16.35;100.00
1832;BME280;1680;48.106;11.708;2023-09-19T02:17:03;95309.28;;;16.32;100.00
1832;BME280;1680;48.106;11.708;2023-09-19T02:19:33;95320.94;;;16.41;100.00
1832;BME280;1680;48.106;11.708;2023-09-19T02:22:02;95314.34;;;16.44;100.00
1832;BME280;1680;48.106;11.708;2023-09-19T02:24:36;95311.44;;;16.40;100.00
1832;BME280;1680;48.106;11.708;2023-09-19T02:27:04;95316.97;;;16.39;100.00
1832;BME280;1680;48.106;11.708;2023-09-19T02:29:32;95314.84;;;16.41;100.00
1832;BME280;1680;48.106;11.708;2023-09-19T02:32:00;95317.78;;;16.39;100.00
1832;BME280;1680;48.106;11.708;2023-09-19T02:34:28;95316.19;;;16.33;100.00
1832;BME280;1680;48.106;11.708;2023-09-19T02:36:56;95322.53;;;16.32;100.00
1832;BME280;1680;48.106;11.708;2023-09-19T02:39:24;95324.38;;;16.32;100.00
1832;BME280;1680;48.106;11.708;2023-09-19T02:41:51;95323.00;;;16.29;100.00
1832;BME280;1680;48.106;11.708;2023-09-19T02:44:18;95323.53;;;16.26;100.00
1832;BME280;1680;48.106;11.708;2023-09-19T02:46:46;95320.38;;;16.24;100.00
1832;BME280;1680;48.106;11.708;2023-09-19T02:49:14;95321.41;;;16.28;100.00
1832;BME280;1680;48.106;11.708;2023-09-19T02:51:43;95318.78;;;16.28;100.00
1832;BME280;1680;48.106;11.708;2023-09-19T02:54:12;95329.63;;;16.27;100.00
1832;BME280;1680;48.106;11.708;2023-09-19T02:56:41;95317.19;;;16.22;100.00
1832;BME280;1680;48.106;11.708;2023-09-19T02:59:08;95315.59;;;16.21;100.00
1832;BME280;1680;48.106;11.708;2023-09-19T03:01:36;95330.94;;;16.19;100.00
1832;BME280;1680;48.106;11.708;2023-09-19T03:04:04;95320.59;;;16.13;100.00
1832;BME280;1680;48.106;11.708;2023-09-19T03:06:36;95321.94;;;16.15;100.00
1832;BME280;1680;48.106;11.708;2023-09-19T03:09:04;95308.41;;;16.07;100.00
1832;BME280;1680;48.106;11.708;2023-09-19T03:11:40;95319.81;;;16.17;100.00
1832;BME280;1680;48.106;11.708;2023-09-19T03:14:07;95324.06;;;16.18;100.00
1832;BME280;1680;48.106;11.708;2023-09-19T03:16:36;95322.75;;;16.16;100.00
1832;BME280;1680;48.106;11.708;2023-09-19T03:19:03;95324.03;;;16.13;100.00
1832;BME280;1680;48.106;11.708;2023-09-19T03:21:30;95322.19;;;16.09;100.00
1832;BME280;1680;48.106;11.708;2023-09-19T03:23:58;95322.44;;;16.12;100.00
1832;BME280;1680;48.106;11.708;2023-09-19T03:26:25;95328.53;;;16.13;100.00
1832;BME280;1680;48.106;11.708;2023-09-19T03:28:54;95328.28;;;16.14;100.00
1832;BME280;1680;48.106;11.708;2023-09-19T03:31:21;95324.03;;;16.13;100.00
1832;BME280;1680;48.106;11.708;2023-09-19T03:33:49;95326.13;;;16.11;100.00
1832;BME280;1680;48.106;11.708;2023-09-19T03:36:16;95332.81;;;16.29;100.00
1832;BME280;1680;48.106;11.708;2023-09-19T03:38:43;95339.41;;;16.21;100.00
1832;BME280;1680;48.106;11.708;2023-09-19T03:41:10;95330.41;;;16.17;100.00
1832;BME280;1680;48.106;11.708;2023-09-19T03:43:39;95326.69;;;16.18;100.00
1832;BME280;1680;48.106;11.708;2023-09-19T03:46:08;95332.78;;;16.19;100.00
1832;BME280;1680;48.106;11.708;2023-09-19T03:48:35;95327.25;;;16.20;100.00
1832;BME280;1680;48.106;11.708;2023-09-19T03:51:02;95331.72;;;16.15;100.00
1832;BME280;1680;48.106;11.708;2023-09-19T03:53:29;95332.53;;;16.10;100.00
1832;BME280;1680;48.106;11.708;2023-09-19T03:55:56;95338.88;;;16.09;100.00
1832;BME280;1680;48.106;11.708;2023-09-19T03:58:25;95335.69;;;16.07;100.00
1832;BME280;1680;48.106;11.708;2023-09-19T04:00:55;95334.34;;;16.10;100.00
1832;BME280;1680;48.106;11.708;2023-09-19T04:03:24;95344.41;;;16.13;100.00
1832;BME280;1680;48.106;11.708;2023-09-19T04:06:00;95339.91;;;16.13;100.00
1832;BME280;1680;48.106;11.708;2023-09-19T04:08:27;95338.84;;;16.14;100.00
1832;BME280;1680;48.106;11.708;2023-09-19T04:10:54;95350.53;;;16.23;100.00
1832;BME280;1680;48.106;11.708;2023-09-19T04:13:22;95349.19;;;16.21;100.00
1832;BME280;1680;48.106;11.708;2023-09-19T04:15:49;95346.03;;;16.24;100.00
1832;BME280;1680;48.106;11.708;2023-09-19T04:18:16;95349.72;;;16.23;100.00
1832;BME280;1680;48.106;11.708;2023-09-19T04:20:49;95358.72;;;16.22;100.00
1832;BME280;1680;48.106;11.708;2023-09-19T04:23:16;95354.25;;;16.22;100.00
1832;BME280;1680;48.106;11.708;2023-09-19T04:25:45;95362.72;;;16.24;100.00
1832;BME280;1680;48.106;11.708;2023-09-19T04:28:12;95362.72;;;16.24;100.00
1832;BME280;1680;48.106;11.708;2023-09-19T04:30:39;95366.94;;;16.20;100.00
1832;BME280;1680;48.106;11.708;2023-09-19T04:33:06;95368.53;;;16.21;100.00
1832;BME280;1680;48.106;11.708;2023-09-19T04:35:34;95363.22;;;16.26;100.00
1832;BME280;1680;48.106;11.708;2023-09-19T04:38:03;95373.03;;;16.26;100.00
1832;BME280;1680;48.106;11.708;2023-09-19T04:40:32;95380.69;;;16.22;100.00
1832;BME280;1680;48.106;11.708;2023-09-19T04:42:59;95383.88;;;16.24;100.00
1832;BME280;1680;48.106;11.708;2023-09-19T04:45:28;95391.28;;;16.22;100.00
1832;BME280;1680;48.106;11.708;2023-09-19T04:47:55;95394.97;;;16.21;100.00
1832;BME280;1680;48.106;11.708;2023-09-19T04:50:25;95390.22;;;16.28;100.00
1832;BME280;1680;48.106;11.708;2023-09-19T04:52:53;95387.59;;;16.28;100.00
1832;BME280;1680;48.106;11.708;2023-09-19T04:55:21;95398.19;;;16.23;100.00
1832;BME280;1680;48.106;11.708;2023-09-19T04:57:50;95395.03;;;16.31;100.00
1832;BME280;1680;48.106;11.708;2023-09-19T05:00:19;95400.28;;;16.21;100.00
1832;BME280;1680;48.106;11.708;2023-09-19T05:02:49;95401.09;;;16.27;100.00
1832;BME280;1680;48.106;11.708;2023-09-19T05:05:17;95407.50;;;16.31;100.00
1832;BME280;1680;48.106;11.708;2023-09-19T05:07:45;95407.25;;;16.37;100.00
1832;BME280;1680;48.106;11.708;2023-09-19T05:10:13;95417.56;;;16.39;100.00
1832;BME280;1680;48.106;11.708;2023-09-19T05:12:42;95419.66;;;16.37;100.00
1832;BME280;1680;48.106;11.708;2023-09-19T05:15:12;95428.41;;;16.42;100.00
1832;BME280;1680;48.106;11.708;2023-09-19T05:17:47;95424.47;;;16.50;100.00
1832;BME280;1680;48.106;11.708;2023-09-19T05:20:15;95422.66;;;16.65;100.00
1832;BME280;1680;48.106;11.708;2023-09-19T05:22:43;95429.00;;;16.64;100.00
1832;BME280;1680;48.106;11.708;2023-09-19T05:25:11;95426.63;;;16.57;100.00
1832;BME280;1680;48.106;11.708;2023-09-19T05:27:42;95427.19;;;16.84;100.00
1832;BME280;1680;48.106;11.708;2023-09-19T05:30:11;95434.06;;;16.75;100.00
1832;BME280;1680;48.106;11.708;2023-09-19T05:32:41;95440.16;;;16.81;100.00
1832;BME280;1680;48.106;11.708;2023-09-19T05:35:09;95435.66;;;16.96;100.00
1832;BME280;1680;48.106;11.708;2023-09-19T05:37:38;95445.22;;;17.02;100.00
1832;BME280;1680;48.106;11.708;2023-09-19T05:40:06;95437.00;;;16.94;100.00
1832;BME280;1680;48.106;11.708;2023-09-19T05:42:35;95442.84;;;16.96;100.00
1832;BME280;1680;48.106;11.708;2023-09-19T05:45:05;95443.09;;;16.94;100.00
1832;BME280;1680;48.106;11.708;2023-09-19T05:47:32;95448.66;;;17.03;100.00
1832;BME280;1680;48.106;11.708;2023-09-19T05:50:00;95445.50;;;16.96;100.00
1832;BME280;1680;48.106;11.708;2023-09-19T05:52:28;95453.69;;;16.84;100.00
1832;BME280;1680;48.106;11.708;2023-09-19T05:54:55;95452.91;;;16.94;100.00
1832;BME280;1680;48.106;11.708;2023-09-19T05:57:22;95457.94;;;16.90;100.00
1832;BME280;1680;48.106;11.708;2023-09-19T05:59:50;95455.53;;;16.84;100.00
1832;BME280;1680;48.106;11.708;2023-09-19T06:02:18;95465.03;;;16.75;100.00
1832;BME280;1680;48.106;11.708;2023-09-19T06:04:46;95473.50;;;16.72;100.00
1832;BME280;1680;48.106;11.708;2023-09-19T06:07:13;95470.63;;;16.83;100.00
1832;BME280;1680;48.106;11.708;2023-09-19T06:09:41;95469.31;;;16.81;100.00
1832;BME280;1680;48.106;11.708;2023-09-19T06:12:09;95468.25;;;16.92;100.00
1832;BME280;1680;48.106;11.708;2023-09-19T06:14:39;95468.03;;;17.13;100.00
1832;BME280;1680;48.106;11.708;2023-09-19T06:17:06;95466.16;;;17.09;100.00
1832;BME280;1680;48.106;11.708;2023-09-19T06:19:35;95468.84;;;17.29;100.00
1832;BME280;1680;48.106;11.708;2023-09-19T06:22:02;95467.53;;;17.31;100.00
1832;BME280;1680;48.106;11.708;2023-09-19T06:24:30;95469.91;;;17.38;100.00
1832;BME280;1680;48.106;11.708;2023-09-19T06:26:57;95478.41;;;17.40;100.00
1832;BME280;1680;48.106;11.708;2023-09-19T06:29:26;95482.38;;;17.42;100.00
1832;BME280;1680;48.106;11.708;2023-09-19T06:31:53;95482.09;;;17.63;100.00
1832;BME280;1680;48.106;11.708;2023-09-19T06:34:20;95485.53;;;17.79;100.00
1832;BME280;1680;48.106;11.708;2023-09-19T06:36:49;95485.25;;;17.80;100.00
1832;BME280;1680;48.106;11.708;2023-09-19T06:39:20;95478.38;;;17.84;100.00
1832;BME280;1680;48.106;11.708;2023-09-19T06:41:49;95487.34;;;17.98;100.00
1832;BME280;1680;48.106;11.708;2023-09-19T06:44:16;95491.00;;;18.22;100.00
1832;BME280;1680;48.106;11.708;2023-09-19T06:46:43;95489.44;;;18.26;100.00
1832;BME280;1680;48.106;11.708;2023-09-19T06:49:11;95493.69;;;18.32;100.00
1832;BME280;1680;48.106;11.708;2023-09-19T06:51:40;95494.72;;;18.31;100.00
1832;BME280;1680;48.106;11.708;2023-09-19T06:54:10;95490.97;;;18.47;100.00
1832;BME280;1680;48.106;11.708;2023-09-19T06:56:37;95484.84;;;18.47;100.00
1832;BME280;1680;48.106;11.708;2023-09-19T06:59:06;95500.81;;;18.37;100.00
1832;BME280;1680;48.106;11.708;2023-09-19T07:01:34;95505.88;;;18.33;100.00
1832;BME280;1680;48.106;11.708;2023-09-19T07:04:03;95508.00;;;18.21;100.00
1832;BME280;1680;48.106;11.708;2023-09-19T07:06:30;95511.22;;;18.18;100.00
1832;BME280;1680;48.106;11.708;2023-09-19T07:08:58;95514.41;;;18.15;100.00
1832;BME280;1680;48.106;11.708;2023-09-19T07:11:27;95509.03;;;18.45;100.00
1832;BME280;1680;48.106;11.708;2023-09-19T07:13:56;95514.28;;;18.60;100.00
1832;BME280;1680;48.106;11.708;2023-09-19T07:16:23;95513.69;;;18.68;100.00
1832;BME280;1680;48.106;11.708;2023-09-19T07:18:54;95513.94;;;18.76;100.00
1832;BME280;1680;48.106;11.708;2023-09-19T07:21:22;95507.84;;;18.71;100.00
1832;BME280;1680;48.106;11.708;2023-09-19T07:23:50;95527.19;;;18.81;100.00
1832;BME280;1680;48.106;11.708;2023-09-19T07:26:17;95519.53;;;18.75;100.00
1832;BME280;1680;48.106;11.708;2023-09-19T07:28:45;95521.66;;;18.78;100.00
1832;BME280;1680;48.106;11.708;2023-09-19T07:31:12;95526.69;;;18.74;100.00
1832;BME280;1680;48.106;11.708;2023-09-19T07:33:40;95519.53;;;18.70;100.00
1832;BME280;1680;48.106;11.708;2023-09-19T07:36:10;95532.81;;;18.70;100.00
1832;BME280;1680;48.106;11.708;2023-09-19T07:38:39;95532.59;;;18.66;100.00
1832;BME280;1680;48.106;11.708;2023-09-19T07:41:06;95529.94;;;18.61;100.00
1832;BME280;1680;48.106;11.708;2023-09-19T07:43:34;95524.63;;;18.61;100.00
1832;BME280;1680;48.106;11.708;2023-09-19T07:46:05;95539.25;;;18.64;100.00
1832;BME280;1680;48.106;11.708;2023-09-19T07:48:34;95534.94;;;18.73;100.00
1832;BME280;1680;48.106;11.708;2023-09-19T07:51:03;95523.41;;;18.92;100.00
1832;BME280;1680;48.106;11.708;2023-09-19T07:53:31;95533.13;;;19.22;100.00
1832;BME280;1680;48.106;11.708;2023-09-19T07:56:04;95524.59;;;19.25;100.00
1832;BME280;1680;48.106;11.708;2023-09-19T07:58:31;95530.09;;;19.33;100.00
1832;BME280;1680;48.106;11.708;2023-09-19T08:01:10;95514.56;;;19.12;100.00
1832;BME280;1680;48.106;11.708;2023-09-19T08:03:39;95534.09;;;19.36;100.00
1832;BME280;1680;48.106;11.708;2023-09-19T08:06:08;95537.84;;;19.30;100.00
1832;BME280;1680;48.106;11.708;2023-09-19T08:08:36;95545.38;;;19.18;100.00
1832;BME280;1680;48.106;11.708;2023-09-19T08:11:04;95542.31;;;19.39;100.00
1832;BME280;1680;48.106;11.708;2023-09-19T08:13:37;95544.22;;;19.34;100.00
1832;BME280;1680;48.106;11.708;2023-09-19T08:16:06;95547.72;;;19.62;100.00
1832;BME280;1680;48.106;11.708;2023-09-19T08:18:35;95547.41;;;19.69;100.00
1832;BME280;1680;48.106;11.708;2023-09-19T08:21:03;95549.19;;;19.83;99.76
1832;BME280;1680;48.106;11.708;2023-09-19T08:23:30;95549.84;;;19.94;97.63
1832;BME280;1680;48.106;11.708;2023-09-19T08:25:57;95554.97;;;19.90;98.74
1832;BME280;1680;48.106;11.708;2023-09-19T08:28:28;95546.34;;;20.03;95.80
1832;BME280;1680;48.106;11.708;2023-09-19T08:30:55;95551.50;;;20.23;96.12
1832;BME280;1680;48.106;11.708;2023-09-19T08:33:23;95551.19;;;20.25;95.71
1832;BME280;1680;48.106;11.708;2023-09-19T08:35:52;95551.00;;;20.45;94.44
1832;BME280;1680;48.106;11.708;2023-09-19T08:38:19;95542.84;;;20.36;94.20
1832;BME280;1680;48.106;11.708;2023-09-19T08:40:46;95547.47;;;20.49;96.89
1832;BME280;1680;48.106;11.708;2023-09-19T08:43:13;95541.38;;;20.49;93.37
1832;BME280;1680;48.106;11.708;2023-09-19T08:45:40;95536.47;;;20.32;91.24
1832;BME280;1680;48.106;11.708;2023-09-19T08:48:22;95547.78;;;20.19;93.75
1832;BME280;1680;48.106;11.708;2023-09-19T08:51:00;95545.66;;;20.21;92.76
1832;BME280;1680;48.106;11.708;2023-09-19T08:53:34;95531.47;;;20.26;92.21
1832;BME280;1680;48.106;11.708;2023-09-19T08:56:08;95514.94;;;20.29;93.21
1832;BME280;1680;48.106;11.708;2023-09-19T08:58:44;95549.47;;;20.62;93.31
1832;BME280;1680;48.106;11.708;2023-09-19T09:01:15;95544.81;;;20.72;89.81
1832;BME280;1680;48.106;11.708;2023-09-19T09:03:50;95542.38;;;20.76;90.12
1832;BME280;1680;48.106;11.708;2023-09-19T09:06:19;95552.75;;;20.82;90.41
1832;BME280;1680;48.106;11.708;2023-09-19T09:08:47;95549.72;;;20.89;89.26
1832;BME280;1680;48.106;11.708;2023-09-19T09:11:14;95555.94;;;21.03;89.11
1832;BME280;1680;48.106;11.708;2023-09-19T09:13:43;95562.78;;;21.09;87.74
1832;BME280;1680;48.106;11.708;2023-09-19T09:16:10;95553.34;;;21.16;86.86
1832;BME280;1680;48.106;11.708;2023-09-19T09:18:38;95553.09;;;21.36;85.18
1832;BME280;1680;48.106;11.708;2023-09-19T09:21:05;95566.13;;;21.38;84.02
1832;BME280;1680;48.106;11.708;2023-09-19T09:23:34;95556.69;;;21.45;85.39
1832;BME280;1680;48.106;11.708;2023-09-19T09:26:01;95561.75;;;21.47;84.95
1832;BME280;1680;48.106;11.708;2023-09-19T09:28:31;95551.41;;;21.22;84.55
1832;BME280;1680;48.106;11.708;2023-09-19T09:30:59;95567.69;;;21.02;83.58
1832;BME280;1680;48.106;11.708;2023-09-19T09:33:28;95562.88;;;21.04;85.71
1832;BME280;1680;48.106;11.708;2023-09-19T09:35:58;95564.56;;;20.95;88.86
1832;BME280;1680;48.106;11.708;2023-09-19T09:38:28;95555.13;;;20.84;84.75
1832;BME280;1680;48.106;11.708;2023-09-19T09:41:00;95564.50;;;20.76;84.71
1832;BME280;1680;48.106;11.708;2023-09-19T09:43:33;95558.16;;;20.96;83.91
1832;BME280;1680;48.106;11.708;2023-09-19T09:46:12;95563.94;;;21.03;81.92
1832;BME280;1680;48.106;11.708;2023-09-19T09:48:57;95566.06;;;21.24;81.96
1832;BME280;1680;48.106;11.708;2023-09-19T09:51:59;95566.22;;;21.33;81.41
1832;BME280;1680;48.106;11.708;2023-09-19T09:54:31;95563.84;;;21.50;82.37
1832;BME280;1680;48.106;11.708;2023-09-19T09:57:05;95568.31;;;21.54;80.08
1832;BME280;1680;48.106;11.708;2023-09-19T09:59:50;95570.47;;;21.34;77.46
1832;BME280;1680;48.106;11.708;2023-09-19T10:02:20;95573.00;;;21.25;79.21
1832;BME280;1680;48.106;11.708;2023-09-19T10:04:53;95572.75;;;21.22;77.89
1832;BME280;1680;48.106;11.708;2023-09-19T10:07:34;95567.78;;;21.15;77.93
1832;BME280;1680;48.106;11.708;2023-09-19T10:10:04;95568.88;;;20.91;79.83
1832;BME280;1680;48.106;11.708;2023-09-19T10:12:46;95559.06;;;20.86;79.05
1832;BME280;1680;48.106;11.708;2023-09-19T10:15:15;95561.03;;;20.76;78.81
1832;BME280;1680;48.106;11.708;2023-09-19T10:17:46;95563.97;;;20.79;78.88
1832;BME280;1680;48.106;11.708;2023-09-19T10:20:15;95557.28;;;20.82;81.20
1832;BME280;1680;48.106;11.708;2023-09-19T10:23:05;95559.84;;;21.10;79.46
1832;BME280;1680;48.106;11.708;2023-09-19T10:25:36;95559.00;;;21.33;79.37
1832;BME280;1680;48.106;11.708;2023-09-19T10:28:07;95561.44;;;21.48;78.06
1832;BME280;1680;48.106;11.708;2023-09-19T10:30:37;95574.44;;;21.54;75.10
1832;BME280;1680;48.106;11.708;2023-09-19T10:33:08;95569.19;;;21.50;77.29
1832;BME280;1680;48.106;11.708;2023-09-19T10:35:38;95555.72;;;21.59;76.64
1832;BME280;1680;48.106;11.708;2023-09-19T10:38:06;95569.41;;;21.71;75.64
1832;BME280;1680;48.106;11.708;2023-09-19T10:40:35;95560.91;;;22.01;75.04
1832;BME280;1680;48.106;11.708;2023-09-19T10:43:11;95561.53;;;22.12;73.49
1832;BME280;1680;48.106;11.708;2023-09-19T10:45:38;95562.16;;;22.22;72.34
1832;BME280;1680;48.106;11.708;2023-09-19T10:48:08;95571.25;;;22.53;72.63
1832;BME280;1680;48.106;11.708;2023-09-19T10:50:37;95559.66;;;22.57;71.92
1832;BME280;1680;48.106;11.708;2023-09-19T10:53:11;95555.81;;;22.77;71.73
1832;BME280;1680;48.106;11.708;2023-09-19T10:55:39;95565.91;;;22.53;69.21
1832;BME280;1680;48.106;11.708;2023-09-19T10:58:08;95563.72;;;22.42;70.68
1832;BME280;1680;48.106;11.708;2023-09-19T11:00:51;95567.28;;;22.51;73.82
1832;BME280;1680;48.106;11.708;2023-09-19T11:03:20;95564.59;;;22.37;74.42
1832;BME280;1680;48.106;11.708;2023-09-19T11:06:02;95569.75;;;22.15;73.96
1832;BME280;1680;48.106;11.708;2023-09-19T11:08:59;95573.63;;;22.09;76.50
1832;BME280;1680;48.106;11.708;2023-09-19T11:11:51;95561.34;;;22.08;74.57
1832;BME280;1680;48.106;11.708;2023-09-19T11:14:47;95570.53;;;22.34;72.15
1832;BME280;1680;48.106;11.708;2023-09-19T11:17:33;95562.81;;;22.46;68.76
1832;BME280;1680;48.106;11.708;2023-09-19T11:20:20;95564.31;;;22.52;70.57
1832;BME280;1680;48.106;11.708;2023-09-19T11:23:17;95557.28;;;22.56;70.72
1832;BME280;1680;48.106;11.708;2023-09-19T11:25:44;95565.44;;;22.91;69.02
1832;BME280;1680;48.106;11.708;2023-09-19T11:28:34;95560.50;;;23.12;65.77
1832;BME280;1680;48.106;11.708;2023-09-19T11:34:45;95551.91;;;23.37;65.19
1832;BME280;1680;48.106;11.708;2023-09-19T11:40:45;95543.94;;;23.58;63.86
1832;BME280;1680;48.106;11.708;2023-09-19T11:43:32;95551.47;;;23.56;62.33
1832;BME280;1680;48.106;11.708;2023-09-19T11:46:08;95542.59;;;23.34;61.66
1832;BME280;1680;48.106;11.708;2023-09-19T11:48:38;95553.50;;;23.38;61.12
1832;BME280;1680;48.106;11.708;2023-09-19T11:51:15;95556.09;;;23.64;61.88
1832;BME280;1680;48.106;11.708;2023-09-19T11:53:48;95544.34;;;23.52;61.52
1832;BME280;1680;48.106;11.708;2023-09-19T11:56:16;95540.28;;;23.76;62.03
1832;BME280;1680;48.106;11.708;2023-09-19T11:58:44;95538.47;;;24.07;62.24
1832;BME280;1680;48.106;11.708;2023-09-19T12:01:15;95554.00;;;24.19;62.73
1832;BME280;1680;48.106;11.708;2023-09-19T12:03:53;95552.34;;;24.31;60.05
1832;BME280;1680;48.106;11.708;2023-09-19T12:06:25;95549.47;;;24.28;59.55
1832;BME280;1680;48.106;11.708;2023-09-19T12:08:53;95549.56;;;24.14;59.17
1832;BME280;1680;48.106;11.708;2023-09-19T12:11:21;95547.19;;;23.91;61.12
1832;BME280;1680;48.106;11.708;2023-09-19T12:13:50;95548.09;;;24.08;62.76
1832;BME280;1680;48.106;11.708;2023-09-19T12:16:19;95562.09;;;23.83;60.09
1832;BME280;1680;48.106;11.708;2023-09-19T12:18:49;95544.72;;;23.46;59.85
1832;BME280;1680;48.106;11.708;2023-09-19T12:21:35;95551.25;;;23.04;62.46
1832;BME280;1680;48.106;11.708;2023-09-19T12:24:07;95549.09;;;23.06;63.61
1832;BME280;1680;48.106;11.708;2023-09-19T12:26:39;95545.31;;;22.94;62.65
1832;BME280;1680;48.106;11.708;2023-09-19T12:29:12;95546.09;;;22.81;65.19
1832;BME280;1680;48.106;11.708;2023-09-19T12:31:50;95541.53;;;22.95;64.38
1832;BME280;1680;48.106;11.708;2023-09-19T12:34:22;95532.53;;;22.91;63.29
1832;BME280;1680;48.106;11.708;2023-09-19T12:37:07;95545.72;;;23.14;62.26
1832;BME280;1680;48.106;11.708;2023-09-19T12:39:43;95533.41;;;23.49;65.30
1832;BME280;1680;48.106;11.708;2023-09-19T12:42:14;95527.84;;;23.58;63.05
1832;BME280;1680;48.106;11.708;2023-09-19T12:44:44;95535.06;;;23.93;62.07
1832;BME280;1680;48.106;11.708;2023-09-19T12:47:14;95534.19;;;24.06;61.30
1832;BME280;1680;48.106;11.708;2023-09-19T12:50:05;95534.41;;;24.10;61.24
1832;BME280;1680;48.106;11.708;2023-09-19T12:52:36;95532.59;;;23.97;58.36
1832;BME280;1680;48.106;11.708;2023-09-19T12:55:03;95538.09;;;23.78;60.95
1832;BME280;1680;48.106;11.708;2023-09-19T12:57:32;95535.53;;;23.73;61.13
1832;BME280;1680;48.106;11.708;2023-09-19T13:00:00;95526.63;;;23.78;59.91
1832;BME280;1680;48.106;11.708;2023-09-19T13:02:27;95528.31;;;23.96;61.47
1832;BME280;1680;48.106;11.708;2023-09-19T13:04:54;95520.34;;;24.13;60.53
1832;BME280;1680;48.106;11.708;2023-09-19T13:07:42;95525.69;;;24.04;60.49
1832;BME280;1680;48.106;11.708;2023-09-19T13:10:12;95513.34;;;24.25;61.01
1832;BME280;1680;48.106;11.708;2023-09-19T13:12:43;95516.63;;;24.22;60.13
1832;BME280;1680;48.106;11.708;2023-09-19T13:15:14;95521.75;;;24.32;59.34
1832;BME280;1680;48.106;11.708;2023-09-19T13:17:46;95513.72;;;24.10;60.26
1832;BME280;1680;48.106;11.708;2023-09-19T13:20:21;95518.59;;;24.30;60.75
1832;BME280;1680;48.106;11.708;2023-09-19T13:22:55;95515.59;;;24.01;59.70
1832;BME280;1680;48.106;11.708;2023-09-19T13:25:26;95503.28;;;24.00;60.16
1832;BME280;1680;48.106;11.708;2023-09-19T13:27:55;95489.28;;;23.81;61.07
1832;BME280;1680;48.106;11.708;2023-09-19T13:30:24;95506.97;;;24.13;60.60